Time;durP1;ratioP1;P1;durP2;ratioP2;P2;SDS_P1;SDS_P2;PMS_P1;PMS_P2;Temp;Humidity;BMP_temperature;BMP_pressure;BME280_temperature;BME280_humidity;BME280_pressure;Samples;Min_cycle;Max_cycle;Signal;HPM_P1;HPM_P2
2024/03/23 00:02:30;;;;;;;5.60;3.25;;;;;;;;;;5068836;28;20032;-78
2024/03/23 00:05:15;;;;;;;9.00;3.75;;;;;;;;;;5057184;28;20060;-80
2024/03/23 00:08:01;;;;;;;5.07;3.38;;;;;;;;;;5055654;28;20020;-79
2024/03/23 00:10:47;;;;;;;13.13;3.90;;;;;;;;;;5064051;28;20066;-80
2024/03/23 00:13:32;;;;;;;7.10;4.10;;;;;;;;;;5066517;28;20362;-80
2024/03/23 00:16:18;;;;;;;10.70;3.53;;;;;;;;;;5089250;28;20024;-79
2024/03/23 00:19:04;;;;;;;9.52;3.95;;;;;;;;;;5074910;28;20063;-79
2024/03/23 00:21:50;;;;;;;7.43;3.80;;;;;;;;;;5081903;28;20113;-80
2024/03/23 00:24:35;;;;;;;8.65;4.25;;;;;;;;;;5070166;28;20030;-80
2024/03/23 00:27:21;;;;;;;6.00;3.83;;;;;;;;;;5063412;28;20400;-81
2024/03/23 00:30:07;;;;;;;8.63;4.15;;;;;;;;;;5086668;28;20028;-81
2024/03/23 00:32:53;;;;;;;6.40;3.85;;;;;;;;;;5066989;28;20527;-80
2024/03/23 00:35:38;;;;;;;10.05;3.15;;;;;;;;;;5086695;28;20035;-80
2024/03/23 00:38:24;;;;;;;4.65;3.17;;;;;;;;;;5058650;28;20032;-79
2024/03/23 00:41:10;;;;;;;8.82;3.55;;;;;;;;;;5070016;28;20070;-79
2024/03/23 00:43:56;;;;;;;8.52;3.50;;;;;;;;;;5071760;28;20024;-81
2024/03/23 00:46:42;;;;;;;5.90;3.17;;;;;;;;;;5077096;28;20038;-79
2024/03/23 00:49:28;;;;;;;5.68;3.13;;;;;;;;;;5064904;28;20101;-80
2024/03/23 00:52:13;;;;;;;8.43;3.15;;;;;;;;;;5067461;28;20040;-78
2024/03/23 00:54:58;;;;;;;5.25;3.50;;;;;;;;;;5083978;28;20107;-79
2024/03/23 00:57:44;;;;;;;5.72;2.80;;;;;;;;;;5054052;28;20020;-78
2024/03/23 01:00:29;;;;;;;6.82;3.45;;;;;;;;;;5052698;28;20028;-79
2024/03/23 01:03:14;;;;;;;5.40;3.03;;;;;;;;;;5080246;28;20082;-80
2024/03/23 01:06:00;;;;;;;7.40;3.45;;;;;;;;;;5071493;28;20028;-80
2024/03/23 01:08:45;;;;;;;7.03;3.55;;;;;;;;;;5064759;28;20028;-80
2024/03/23 01:11:30;;;;;;;8.05;4.03;;;;;;;;;;5063673;28;20016;-80
2024/03/23 01:14:16;;;;;;;5.93;2.97;;;;;;;;;;5070268;28;20047;-80
2024/03/23 01:17:01;;;;;;;6.97;3.22;;;;;;;;;;5051988;28;20028;-80
2024/03/23 01:19:47;;;;;;;6.28;3.25;;;;;;;;;;5055636;28;20093;-80
2024/03/23 01:22:32;;;;;;;6.97;3.10;;;;;;;;;;5057726;28;20032;-80
2024/03/23 01:25:18;;;;;;;5.60;2.65;;;;;;;;;;5094044;28;20035;-79
2024/03/23 01:28:03;;;;;;;10.23;3.28;;;;;;;;;;5071819;28;20036;-78
2024/03/23 01:30:49;;;;;;;6.28;2.90;;;;;;;;;;5071475;28;20143;-79
2024/03/23 01:33:34;;;;;;;8.75;3.22;;;;;;;;;;5100130;28;20040;-79
2024/03/23 01:36:19;;;;;;;8.55;4.25;;;;;;;;;;5071697;28;20035;-80
2024/03/23 01:39:05;;;;;;;5.13;2.80;;;;;;;;;;5070320;28;20040;-80
2024/03/23 01:41:50;;;;;;;6.20;2.88;;;;;;;;;;5068816;28;20059;-80
2024/03/23 01:44:35;;;;;;;8.00;2.80;;;;;;;;;;5064694;28;20028;-79
2024/03/23 01:47:20;;;;;;;6.68;2.70;;;;;;;;;;5057526;28;20032;-78
2024/03/23 01:50:06;;;;;;;6.22;2.72;;;;;;;;;;5056163;28;20024;-81
2024/03/23 01:52:51;;;;;;;7.10;3.08;;;;;;;;;;5061439;28;20056;-80
2024/03/23 01:55:38;;;;;;;6.40;2.60;;;;;;;;;;5080917;28;20390;-80
2024/03/23 01:58:23;;;;;;;10.25;3.58;;;;;;;;;;5083670;28;20016;-80
2024/03/23 02:01:08;;;;;;;5.10;2.60;;;;;;;;;;5071632;28;20390;-80
2024/03/23 02:03:53;;;;;;;6.68;2.38;;;;;;;;;;5071623;28;20031;-80
2024/03/23 02:06:39;;;;;;;4.32;2.50;;;;;;;;;;5070490;28;20062;-80
2024/03/23 02:09:24;;;;;;;5.45;2.70;;;;;;;;;;5050146;28;21154;-80
2024/03/23 02:12:09;;;;;;;6.25;2.35;;;;;;;;;;5064248;28;20024;-81
2024/03/23 02:14:54;;;;;;;3.97;2.60;;;;;;;;;;5064337;28;20060;-79
2024/03/23 02:17:40;;;;;;;6.57;2.63;;;;;;;;;;5061154;28;20056;-79
2024/03/23 02:20:25;;;;;;;5.07;2.85;;;;;;;;;;5051312;28;20029;-79
2024/03/23 02:23:13;;;;;;;5.47;2.30;;;;;;;;;;5051333;28;20024;-80
2024/03/23 02:26:06;;;;;;;3.90;2.25;;;;;;;;;;5050911;28;20048;-80
2024/03/23 02:28:51;;;;;;;4.28;2.08;;;;;;;;;;5081696;28;20028;-79
2024/03/23 02:31:37;;;;;;;5.13;2.35;;;;;;;;;;5071225;28;20020;-79
2024/03/23 02:34:22;;;;;;;4.68;2.20;;;;;;;;;;5070870;28;20565;-79
2024/03/23 02:37:13;;;;;;;6.10;2.47;;;;;;;;;;5070165;28;20020;-80
2024/03/23 02:39:58;;;;;;;4.10;2.47;;;;;;;;;;5064541;28;20040;-79
2024/03/23 02:42:43;;;;;;;9.10;2.80;;;;;;;;;;5051110;28;20017;-79
2024/03/23 02:45:29;;;;;;;6.53;3.20;;;;;;;;;;5053736;28;20090;-78
2024/03/23 02:48:14;;;;;;;5.72;3.33;;;;;;;;;;5055958;28;20035;-79
2024/03/23 02:50:59;;;;;;;5.30;2.33;;;;;;;;;;5070809;28;20170;-80
2024/03/23 02:53:45;;;;;;;3.78;2.45;;;;;;;;;;5064909;28;20028;-81
2024/03/23 02:56:32;;;;;;;3.75;2.20;;;;;;;;;;5085215;28;20036;-80
2024/03/23 02:59:17;;;;;;;5.65;2.25;;;;;;;;;;5054959;28;20027;-80
2024/03/23 03:02:04;;;;;;;3.13;2.35;;;;;;;;;;5068168;28;20031;-79
2024/03/23 03:04:49;;;;;;;3.65;2.35;;;;;;;;;;5068004;28;20031;-79
2024/03/23 03:07:34;;;;;;;5.63;2.30;;;;;;;;;;5055945;28;20617;-80
2024/03/23 03:10:20;;;;;;;4.25;2.10;;;;;;;;;;5072116;28;20077;-80
2024/03/23 03:13:05;;;;;;;5.75;2.20;;;;;;;;;;5067185;28;20028;-80
2024/03/23 03:15:50;;;;;;;5.75;1.90;;;;;;;;;;5066924;28;20051;-79
2024/03/23 03:18:36;;;;;;;7.30;2.42;;;;;;;;;;5055028;28;20029;-79
2024/03/23 03:21:21;;;;;;;3.63;2.28;;;;;;;;;;5070564;28;20355;-80
2024/03/23 03:24:07;;;;;;;3.72;2.60;;;;;;;;;;5074220;28;20024;-79
2024/03/23 03:26:52;;;;;;;5.72;3.47;;;;;;;;;;5082828;28;20020;-79
2024/03/23 03:29:37;;;;;;;4.18;2.15;;;;;;;;;;5080217;28;20085;-79
2024/03/23 03:32:22;;;;;;;4.03;2.00;;;;;;;;;;5091125;28;20470;-79
2024/03/23 03:35:07;;;;;;;4.63;2.58;;;;;;;;;;5071218;28;20493;-79
2024/03/23 03:37:53;;;;;;;4.35;2.20;;;;;;;;;;5078140;28;20028;-79
2024/03/23 03:40:38;;;;;;;3.88;2.28;;;;;;;;;;5067411;28;20033;-81
2024/03/23 03:43:23;;;;;;;6.57;3.80;;;;;;;;;;5076386;28;20032;-78
2024/03/23 03:46:09;;;;;;;7.47;2.70;;;;;;;;;;5076170;28;20501;-81
2024/03/23 03:48:54;;;;;;;4.57;2.67;;;;;;;;;;5058261;28;20041;-80
2024/03/23 03:51:40;;;;;;;4.80;2.45;;;;;;;;;;5061755;28;20032;-80
2024/03/23 03:54:25;;;;;;;4.85;2.05;;;;;;;;;;5077388;28;20595;-80
2024/03/23 03:57:10;;;;;;;7.75;2.20;;;;;;;;;;5071645;28;20467;-78
2024/03/23 03:59:55;;;;;;;6.20;2.35;;;;;;;;;;5084613;28;20501;-79
2024/03/23 04:02:41;;;;;;;9.15;2.10;;;;;;;;;;5073131;28;20028;-79
2024/03/23 04:05:26;;;;;;;4.97;2.75;;;;;;;;;;5062064;28;20039;-80
2024/03/23 04:08:11;;;;;;;4.78;2.15;;;;;;;;;;5082876;28;20139;-80
2024/03/23 04:10:57;;;;;;;6.78;2.60;;;;;;;;;;5071205;28;20020;-81
2024/03/23 04:13:42;;;;;;;6.55;3.42;;;;;;;;;;5058158;28;20275;-80
2024/03/23 04:16:29;;;;;;;6.25;3.20;;;;;;;;;;5060887;28;20341;-80
2024/03/23 04:19:14;;;;;;;4.72;2.47;;;;;;;;;;5054106;28;20101;-80
2024/03/23 04:21:59;;;;;;;6.15;2.28;;;;;;;;;;5066175;28;20164;-79
2024/03/23 04:24:44;;;;;;;4.95;2.20;;;;;;;;;;5053451;28;20033;-79
2024/03/23 04:27:29;;;;;;;3.80;2.53;;;;;;;;;;5066835;28;20028;-79
2024/03/23 04:30:15;;;;;;;3.92;2.15;;;;;;;;;;5066763;28;20025;-79
2024/03/23 04:33:00;;;;;;;6.35;2.88;;;;;;;;;;5060558;28;20020;-79
2024/03/23 04:35:48;;;;;;;6.30;2.88;;;;;;;;;;5050880;28;20115;-80
2024/03/23 04:38:34;;;;;;;3.40;2.10;;;;;;;;;;5061096;28;20059;-79
2024/03/23 04:41:19;;;;;;;4.93;2.63;;;;;;;;;;5066515;28;20025;-79
2024/03/23 04:44:17;;;;;;;5.65;2.50;;;;;;;;;;5067974;28;20103;-79
2024/03/23 04:47:02;;;;;;;4.03;2.33;;;;;;;;;;5057993;28;20024;-78
2024/03/23 04:49:47;;;;;;;4.82;2.67;;;;;;;;;;5073528;28;20079;-78
2024/03/23 04:52:32;;;;;;;7.10;2.83;;;;;;;;;;5058381;28;20375;-79
2024/03/23 04:55:19;;;;;;;6.45;2.25;;;;;;;;;;5072332;28;20127;-79
2024/03/23 04:58:04;;;;;;;4.55;2.60;;;;;;;;;;5069173;28;20479;-79
2024/03/23 05:00:53;;;;;;;6.85;3.20;;;;;;;;;;5062900;28;20039;-79
2024/03/23 05:03:38;;;;;;;7.00;3.65;;;;;;;;;;5067086;28;20059;-79
2024/03/23 05:06:24;;;;;;;5.57;3.50;;;;;;;;;;5075016;28;20466;-79
2024/03/23 05:09:11;;;;;;;11.23;5.05;;;;;;;;;;5063421;28;20390;-79
2024/03/23 05:11:57;;;;;;;6.97;4.50;;;;;;;;;;5052212;28;20039;-79
2024/03/23 05:14:42;;;;;;;8.80;5.85;;;;;;;;;;5060669;28;20127;-80
2024/03/23 05:17:27;;;;;;;11.20;6.70;;;;;;;;;;5061204;28;20028;-79
2024/03/23 05:20:12;;;;;;;11.80;6.93;;;;;;;;;;5080491;28;20036;-81
2024/03/23 05:22:58;;;;;;;11.20;6.53;;;;;;;;;;5066346;28;20086;-80
2024/03/23 05:25:43;;;;;;;12.65;7.68;;;;;;;;;;5066938;28;20036;-78
2024/03/23 05:28:29;;;;;;;12.63;7.65;;;;;;;;;;5067471;28;20029;-80
2024/03/23 05:31:27;;;;;;;11.98;7.00;;;;;;;;;;5066663;28;20024;-80
2024/03/23 05:34:12;;;;;;;12.75;8.20;;;;;;;;;;5065749;28;20016;-81
2024/03/23 05:36:57;;;;;;;14.93;8.75;;;;;;;;;;5066534;28;20030;-80
2024/03/23 05:39:42;;;;;;;12.57;8.00;;;;;;;;;;5072770;28;20080;-81
2024/03/23 05:42:27;;;;;;;13.73;9.02;;;;;;;;;;5091158;28;20029;-80
2024/03/23 05:45:13;;;;;;;12.27;8.77;;;;;;;;;;5092044;28;20104;-79
2024/03/23 05:47:58;;;;;;;12.63;7.72;;;;;;;;;;5072171;28;20058;-79
2024/03/23 05:50:43;;;;;;;13.82;8.57;;;;;;;;;;5075670;28;20030;-79
2024/03/23 05:53:30;;;;;;;13.18;9.07;;;;;;;;;;5076106;28;20030;-79
2024/03/23 05:56:19;;;;;;;14.50;9.80;;;;;;;;;;5067385;28;20541;-79
2024/03/23 05:59:04;;;;;;;13.65;8.77;;;;;;;;;;5072201;28;20034;-79
2024/03/23 06:01:50;;;;;;;12.32;8.55;;;;;;;;;;5082818;28;20024;-79
2024/03/23 06:04:35;;;;;;;12.43;8.45;;;;;;;;;;5065192;28;20050;-79
2024/03/23 06:07:20;;;;;;;13.40;7.80;;;;;;;;;;5056069;28;20079;-78
2024/03/23 06:10:06;;;;;;;14.10;7.75;;;;;;;;;;5085152;28;20034;-80
2024/03/23 06:12:52;;;;;;;9.93;5.88;;;;;;;;;;5071521;28;20024;-77
2024/03/23 06:15:37;;;;;;;8.95;5.45;;;;;;;;;;5057473;28;20040;-80
2024/03/23 06:18:24;;;;;;;8.60;4.78;;;;;;;;;;5078450;28;20040;-77
2024/03/23 06:21:13;;;;;;;7.80;3.72;;;;;;;;;;5070567;28;20095;-78
2024/03/23 06:23:57;;;;;;;6.15;3.83;;;;;;;;;;5114917;28;20047;-79
2024/03/23 06:26:45;;;;;;;5.15;3.15;;;;;;;;;;5072145;28;20055;-79
2024/03/23 06:29:31;;;;;;;4.85;2.95;;;;;;;;;;5058502;28;20072;-79
2024/03/23 06:32:16;;;;;;;4.10;2.55;;;;;;;;;;5054695;28;20020;-79
2024/03/23 06:35:07;;;;;;;3.78;2.17;;;;;;;;;;5070689;28;20455;-80
2024/03/23 06:37:53;;;;;;;3.72;2.22;;;;;;;;;;5067273;28;20032;-81
2024/03/23 06:40:38;;;;;;;3.67;1.48;;;;;;;;;;5051568;28;20098;-80
2024/03/23 06:43:23;;;;;;;2.03;1.38;;;;;;;;;;5052201;28;20479;-80
2024/03/23 06:46:09;;;;;;;1.52;1.00;;;;;;;;;;5077843;28;20063;-80
2024/03/23 06:48:54;;;;;;;1.05;0.85;;;;;;;;;;5067301;28;20028;-80
2024/03/23 06:51:39;;;;;;;1.20;0.93;;;;;;;;;;5050898;28;20028;-80
2024/03/23 06:54:26;;;;;;;3.00;0.90;;;;;;;;;;5058257;28;20484;-79
2024/03/23 06:57:11;;;;;;;0.60;0.60;;;;;;;;;;5087304;28;20028;-79
2024/03/23 06:59:57;;;;;;;0.80;0.80;;;;;;;;;;5079594;28;20117;-79
2024/03/23 07:02:44;;;;;;;0.77;0.70;;;;;;;;;;5072942;28;20016;-79
2024/03/23 07:05:29;;;;;;;1.10;0.70;;;;;;;;;;5082399;28;20062;-79
2024/03/23 07:08:20;;;;;;;1.00;0.85;;;;;;;;;;5079674;28;20020;-79
2024/03/23 07:11:06;;;;;;;2.40;0.82;;;;;;;;;;5062191;28;20123;-79
2024/03/23 07:13:52;;;;;;;0.82;0.75;;;;;;;;;;5054648;28;20124;-79
2024/03/23 07:16:37;;;;;;;0.65;0.63;;;;;;;;;;5081992;28;20032;-79
2024/03/23 07:19:24;;;;;;;0.50;0.50;;;;;;;;;;5074311;28;20032;-80
2024/03/23 07:22:10;;;;;;;1.17;0.70;;;;;;;;;;5093266;28;20401;-80
2024/03/23 07:24:55;;;;;;;0.47;0.47;;;;;;;;;;5090761;28;20035;-79
2024/03/23 07:27:40;;;;;;;0.57;0.57;;;;;;;;;;5071544;28;20031;-79
2024/03/23 07:30:26;;;;;;;0.50;0.50;;;;;;;;;;5076101;28;20513;-79
2024/03/23 07:33:11;;;;;;;0.60;0.60;;;;;;;;;;5063814;28;20035;-79
2024/03/23 07:35:57;;;;;;;0.95;0.70;;;;;;;;;;5075059;28;20458;-79
2024/03/23 07:38:44;;;;;;;0.50;0.50;;;;;;;;;;5071015;28;20035;-79
2024/03/23 07:41:30;;;;;;;1.73;0.70;;;;;;;;;;5076291;28;20024;-79
2024/03/23 07:44:15;;;;;;;0.60;0.60;;;;;;;;;;5074695;28;20060;-77
2024/03/23 07:47:01;;;;;;;2.50;0.68;;;;;;;;;;5073801;28;20078;-77
2024/03/23 07:49:47;;;;;;;0.70;0.68;;;;;;;;;;5056941;28;20482;-79
2024/03/23 07:52:32;;;;;;;0.60;0.60;;;;;;;;;;5071469;28;20548;-79
2024/03/23 07:55:17;;;;;;;0.85;0.60;;;;;;;;;;5087199;28;20088;-80
2024/03/23 07:58:02;;;;;;;0.60;0.60;;;;;;;;;;5070231;28;20074;-79
2024/03/23 08:00:48;;;;;;;1.25;0.80;;;;;;;;;;5067970;28;20111;-80
2024/03/23 08:03:33;;;;;;;0.60;0.60;;;;;;;;;;5053789;28;20035;-80
2024/03/23 08:06:19;;;;;;;0.60;0.60;;;;;;;;;;5069825;28;20422;-80
2024/03/23 08:09:05;;;;;;;1.50;0.88;;;;;;;;;;5068958;28;20060;-79
2024/03/23 08:11:50;;;;;;;1.48;1.17;;;;;;;;;;5086168;28;20024;-80
2024/03/23 08:14:35;;;;;;;0.88;0.77;;;;;;;;;;5076977;28;20048;-80
2024/03/23 08:17:21;;;;;;;0.95;0.82;;;;;;;;;;5071547;28;20115;-79
2024/03/23 08:20:08;;;;;;;2.38;1.05;;;;;;;;;;5069700;28;20120;-79
2024/03/23 08:22:53;;;;;;;3.63;1.38;;;;;;;;;;5053116;28;20094;-79
2024/03/23 08:25:38;;;;;;;0.77;0.77;;;;;;;;;;5077971;28;20027;-79
2024/03/23 08:28:23;;;;;;;1.45;0.60;;;;;;;;;;5068742;28;20100;-79
2024/03/23 08:31:10;;;;;;;0.88;0.60;;;;;;;;;;5073136;28;20024;-79
2024/03/23 08:33:55;;;;;;;1.02;0.70;;;;;;;;;;5065229;28;20025;-79
2024/03/23 08:36:40;;;;;;;0.70;0.70;;;;;;;;;;5081574;28;20166;-79
2024/03/23 08:39:25;;;;;;;2.00;0.85;;;;;;;;;;5068052;28;20024;-79
2024/03/23 08:42:11;;;;;;;0.93;0.85;;;;;;;;;;5078432;28;20059;-79
2024/03/23 08:44:56;;;;;;;2.05;0.88;;;;;;;;;;5089308;28;20030;-79
2024/03/23 08:47:41;;;;;;;3.35;1.15;;;;;;;;;;5091367;28;20028;-80
2024/03/23 08:50:26;;;;;;;1.35;0.90;;;;;;;;;;5086153;28;20027;-78
2024/03/23 08:53:12;;;;;;;2.25;1.20;;;;;;;;;;5079800;28;20156;-79
2024/03/23 08:55:57;;;;;;;1.20;1.08;;;;;;;;;;5053400;28;20467;-79
2024/03/23 08:58:42;;;;;;;1.83;1.10;;;;;;;;;;5067424;28;20036;-80
2024/03/23 09:01:28;;;;;;;2.35;0.82;;;;;;;;;;5074797;28;20031;-79
2024/03/23 09:04:13;;;;;;;4.00;1.50;;;;;;;;;;5089669;28;20385;-81
2024/03/23 09:06:59;;;;;;;1.65;0.90;;;;;;;;;;5076452;28;20031;-80
2024/03/23 09:09:45;;;;;;;3.80;1.45;;;;;;;;;;5094536;28;20085;-81
2024/03/23 09:12:30;;;;;;;3.50;1.40;;;;;;;;;;5090577;28;20075;-80
2024/03/23 09:15:15;;;;;;;2.25;1.27;;;;;;;;;;5075182;28;20040;-80
2024/03/23 09:18:01;;;;;;;2.28;1.20;;;;;;;;;;5072252;28;20052;-80
2024/03/23 09:20:46;;;;;;;2.33;1.25;;;;;;;;;;5068146;28;20024;-79
2024/03/23 09:23:31;;;;;;;4.13;2.40;;;;;;;;;;5071080;28;20146;-79
2024/03/23 09:26:16;;;;;;;5.25;2.10;;;;;;;;;;5089035;28;20027;-81
2024/03/23 09:29:02;;;;;;;7.05;2.25;;;;;;;;;;5092243;28;20506;-81
2024/03/23 09:31:47;;;;;;;4.97;2.10;;;;;;;;;;5072179;28;20032;-80
2024/03/23 09:34:33;;;;;;;4.05;2.38;;;;;;;;;;5080855;28;20023;-78
2024/03/23 09:37:19;;;;;;;4.88;2.38;;;;;;;;;;5054884;28;20031;-80
2024/03/23 09:40:05;;;;;;;7.18;2.38;;;;;;;;;;5065710;28;20029;-81
2024/03/23 09:42:50;;;;;;;7.55;2.80;;;;;;;;;;5080353;28;20059;-81
2024/03/23 09:45:38;;;;;;;6.43;2.63;;;;;;;;;;5076859;28;20074;-81
2024/03/23 09:48:24;;;;;;;7.43;2.60;;;;;;;;;;5075244;28;20039;-81
2024/03/23 09:51:09;;;;;;;7.93;2.40;;;;;;;;;;5090750;28;20066;-80
2024/03/23 09:53:55;;;;;;;11.35;3.63;;;;;;;;;;5082408;28;20106;-80
2024/03/23 09:56:40;;;;;;;7.53;2.50;;;;;;;;;;5105825;28;20123;-79
2024/03/23 09:59:26;;;;;;;5.93;2.40;;;;;;;;;;5091493;28;20032;-79
2024/03/23 10:02:16;;;;;;;7.63;3.10;;;;;;;;;;5063162;28;20040;-79
2024/03/23 10:05:02;;;;;;;7.60;2.75;;;;;;;;;;5066348;28;20028;-78
2024/03/23 10:07:47;;;;;;;7.90;2.85;;;;;;;;;;5059398;28;20051;-79
2024/03/23 10:10:32;;;;;;;9.10;3.28;;;;;;;;;;5070867;28;20030;-79
2024/03/23 10:13:25;;;;;;;9.52;2.58;;;;;;;;;;5059745;28;20074;-78
2024/03/23 10:16:10;;;;;;;7.35;2.50;;;;;;;;;;5085136;28;20120;-79
2024/03/23 10:18:55;;;;;;;4.50;2.50;;;;;;;;;;5075611;28;20222;-79
2024/03/23 10:21:51;;;;;;;9.15;3.08;;;;;;;;;;5067458;28;20058;-79
2024/03/23 10:24:39;;;;;;;8.38;2.63;;;;;;;;;;5066367;28;20032;-80
2024/03/23 10:27:24;;;;;;;8.95;2.75;;;;;;;;;;5050870;28;20032;-80
2024/03/23 10:30:11;;;;;;;6.10;3.05;;;;;;;;;;5059177;28;20052;-80
2024/03/23 10:33:11;;;;;;;6.45;2.67;;;;;;;;;;5071560;28;20131;-80
2024/03/23 10:35:57;;;;;;;9.07;2.90;;;;;;;;;;5058871;28;20040;-78
2024/03/23 10:38:43;;;;;;;7.35;2.97;;;;;;;;;;5087373;28;20024;-79
2024/03/23 10:41:31;;;;;;;10.05;3.33;;;;;;;;;;5052791;28;20036;-79
2024/03/23 10:44:18;;;;;;;7.15;2.80;;;;;;;;;;5073414;28;20016;-79
2024/03/23 10:47:04;;;;;;;7.15;3.00;;;;;;;;;;5083177;28;20032;-80
2024/03/23 10:49:50;;;;;;;9.95;3.20;;;;;;;;;;5079031;28;20027;-79
2024/03/23 10:52:35;;;;;;;5.90;2.95;;;;;;;;;;5095280;28;20031;-79
2024/03/23 10:55:22;;;;;;;9.88;3.10;;;;;;;;;;5092321;28;20108;-79
2024/03/23 10:58:08;;;;;;;8.45;2.83;;;;;;;;;;5088773;28;20055;-79
2024/03/23 11:00:53;;;;;;;3.30;2.30;;;;;;;;;;5073730;28;20023;-78
2024/03/23 11:03:44;;;;;;;4.82;2.28;;;;;;;;;;5055165;28;20035;-79
2024/03/23 11:06:36;;;;;;;4.35;2.10;;;;;;;;;;5069240;28;20330;-79
2024/03/23 11:09:34;;;;;;;4.95;1.60;;;;;;;;;;5073756;28;20085;-78
2024/03/23 11:12:22;;;;;;;3.42;1.67;;;;;;;;;;5089128;28;20032;-78
2024/03/23 11:15:11;;;;;;;7.22;2.78;;;;;;;;;;5088294;28;20131;-79
2024/03/23 11:18:04;;;;;;;3.00;1.58;;;;;;;;;;5068227;28;20601;-79
2024/03/23 11:20:49;;;;;;;6.15;1.95;;;;;;;;;;5072588;28;20079;-79
2024/03/23 11:23:35;;;;;;;5.32;2.33;;;;;;;;;;5056369;28;20410;-79
2024/03/23 11:26:20;;;;;;;6.55;2.08;;;;;;;;;;5076395;28;20453;-79
2024/03/23 11:29:09;;;;;;;5.82;2.05;;;;;;;;;;5069047;28;20032;-77
2024/03/23 11:31:56;;;;;;;7.45;2.30;;;;;;;;;;5057890;28;20072;-79
2024/03/23 11:34:41;;;;;;;9.88;2.65;;;;;;;;;;5071550;28;20042;-79
2024/03/23 11:37:26;;;;;;;3.13;1.55;;;;;;;;;;5063400;28;20028;-79
2024/03/23 11:40:21;;;;;;;4.32;1.50;;;;;;;;;;5070811;28;20548;-79
2024/03/23 11:43:07;;;;;;;6.07;2.08;;;;;;;;;;5074692;28;20044;-79
2024/03/23 11:45:57;;;;;;;8.35;2.53;;;;;;;;;;5073588;28;20429;-79
2024/03/23 11:48:49;;;;;;;6.18;1.73;;;;;;;;;;5073380;28;20451;-79
2024/03/23 11:51:34;;;;;;;6.10;2.17;;;;;;;;;;5067627;28;20052;-79
2024/03/23 11:54:20;;;;;;;5.10;1.70;;;;;;;;;;5064191;28;20067;-79
2024/03/23 11:57:08;;;;;;;4.45;1.67;;;;;;;;;;5093601;28;20023;-79
2024/03/23 11:59:53;;;;;;;5.25;1.65;;;;;;;;;;5079181;28;20220;-79
2024/03/23 12:02:38;;;;;;;6.10;2.03;;;;;;;;;;5073339;28;20438;-80
2024/03/23 12:05:25;;;;;;;3.42;1.42;;;;;;;;;;5069069;28;20445;-79
2024/03/23 12:08:23;;;;;;;5.95;1.67;;;;;;;;;;5066132;28;20040;-79
2024/03/23 12:11:10;;;;;;;5.03;1.45;;;;;;;;;;5092320;28;20023;-79
2024/03/23 12:13:59;;;;;;;3.45;1.30;;;;;;;;;;5093371;28;20051;-79
2024/03/23 12:16:44;;;;;;;5.00;1.95;;;;;;;;;;5108162;28;20055;-79
2024/03/23 12:19:29;;;;;;;6.13;1.50;;;;;;;;;;5088933;28;20050;-79
2024/03/23 12:22:15;;;;;;;8.23;2.33;;;;;;;;;;5072600;28;20028;-79
2024/03/23 12:25:00;;;;;;;6.10;1.88;;;;;;;;;;5053880;28;20111;-79
2024/03/23 12:27:45;;;;;;;9.75;2.42;;;;;;;;;;5053078;28;20035;-79
2024/03/23 12:30:30;;;;;;;4.93;1.90;;;;;;;;;;5090959;28;20034;-79
2024/03/23 12:33:16;;;;;;;10.60;2.22;;;;;;;;;;5090150;28;20103;-79
2024/03/23 12:36:01;;;;;;;6.82;2.10;;;;;;;;;;5075256;28;20025;-78
2024/03/23 12:38:46;;;;;;;5.38;2.22;;;;;;;;;;5065802;28;20440;-78
2024/03/23 12:41:34;;;;;;;8.20;2.67;;;;;;;;;;5090443;28;20030;-78
2024/03/23 12:44:20;;;;;;;9.43;2.20;;;;;;;;;;5075702;28;20043;-78
2024/03/23 12:47:06;;;;;;;9.45;2.42;;;;;;;;;;5072776;28;20387;-78
2024/03/23 12:49:52;;;;;;;7.07;1.98;;;;;;;;;;5071129;28;20039;-79
2024/03/23 12:52:37;;;;;;;8.95;3.00;;;;;;;;;;5071209;28;20154;-79
2024/03/23 12:55:22;;;;;;;8.88;2.25;;;;;;;;;;5072511;28;20023;-78
2024/03/23 12:58:09;;;;;;;8.90;2.20;;;;;;;;;;5056258;28;20020;-79
2024/03/23 13:00:54;;;;;;;8.75;2.33;;;;;;;;;;5081184;28;20086;-79
2024/03/23 13:03:41;;;;;;;17.77;2.97;;;;;;;;;;5083802;28;20111;-80
2024/03/23 13:06:27;;;;;;;11.30;3.47;;;;;;;;;;5094110;28;20035;-79
2024/03/23 13:09:12;;;;;;;6.88;1.88;;;;;;;;;;5089780;28;20073;-79
2024/03/23 13:11:57;;;;;;;10.43;3.25;;;;;;;;;;5071450;28;20115;-78
2024/03/23 13:14:42;;;;;;;14.80;2.50;;;;;;;;;;5088064;28;20047;-78
2024/03/23 13:17:28;;;;;;;8.75;2.33;;;;;;;;;;5090278;28;20433;-79
2024/03/23 13:20:14;;;;;;;8.15;2.42;;;;;;;;;;5070651;28;20504;-78
2024/03/23 13:23:00;;;;;;;10.05;2.90;;;;;;;;;;5071922;28;20426;-78
2024/03/23 13:25:52;;;;;;;10.15;3.53;;;;;;;;;;5086100;28;20071;-78
2024/03/23 13:28:37;;;;;;;10.82;2.47;;;;;;;;;;5072271;28;20069;-78
2024/03/23 13:31:23;;;;;;;6.95;2.33;;;;;;;;;;5077633;28;20027;-79
2024/03/23 13:34:08;;;;;;;11.23;2.60;;;;;;;;;;5071917;28;20024;-79
2024/03/23 13:36:54;;;;;;;6.50;2.22;;;;;;;;;;5052706;28;20064;-79
2024/03/23 13:39:41;;;;;;;5.93;1.83;;;;;;;;;;5065794;28;20043;-78
2024/03/23 13:42:27;;;;;;;3.85;1.60;;;;;;;;;;5064146;28;20047;-78
2024/03/23 13:45:12;;;;;;;3.55;1.25;;;;;;;;;;5063859;28;20501;-78
2024/03/23 13:47:57;;;;;;;6.43;2.03;;;;;;;;;;5077067;28;20572;-79
2024/03/23 13:50:42;;;;;;;4.18;1.50;;;;;;;;;;5054775;28;20476;-78
2024/03/23 13:53:28;;;;;;;4.90;1.92;;;;;;;;;;5053171;28;20557;-78
2024/03/23 13:56:13;;;;;;;3.88;1.45;;;;;;;;;;5060958;28;20031;-78
2024/03/23 13:58:58;;;;;;;6.57;1.98;;;;;;;;;;5051795;28;20083;-79
2024/03/23 14:01:46;;;;;;;3.83;1.50;;;;;;;;;;5067566;28;20020;-79
2024/03/23 14:04:31;;;;;;;6.78;1.48;;;;;;;;;;5070346;28;20442;-79
2024/03/23 14:07:18;;;;;;;4.43;1.63;;;;;;;;;;5061054;28;20028;-79
2024/03/23 14:10:06;;;;;;;4.47;1.88;;;;;;;;;;5064695;28;20107;-77
2024/03/23 14:12:51;;;;;;;5.32;1.60;;;;;;;;;;5071603;28;20103;-78
2024/03/23 14:15:36;;;;;;;4.13;1.80;;;;;;;;;;5066834;28;20043;-78
2024/03/23 14:18:28;;;;;;;5.20;1.60;;;;;;;;;;5051260;28;20052;-77
2024/03/23 14:21:13;;;;;;;4.45;1.60;;;;;;;;;;5055444;28;20024;-80
2024/03/23 14:23:58;;;;;;;3.40;1.30;;;;;;;;;;5056040;28;20426;-78
2024/03/23 14:26:44;;;;;;;4.10;1.02;;;;;;;;;;5060531;28;20032;-78
2024/03/23 14:29:29;;;;;;;4.53;1.30;;;;;;;;;;5085829;28;20103;-78
2024/03/23 14:32:14;;;;;;;2.72;1.05;;;;;;;;;;5072991;28;20020;-78
2024/03/23 14:35:03;;;;;;;3.00;1.17;;;;;;;;;;5105140;28;20050;-77
2024/03/23 14:37:48;;;;;;;1.75;1.00;;;;;;;;;;5067717;28;20422;-77
2024/03/23 14:40:35;;;;;;;2.22;0.77;;;;;;;;;;5068836;28;20036;-77
2024/03/23 14:43:21;;;;;;;2.90;1.33;;;;;;;;;;5059385;28;20030;-77
2024/03/23 14:46:11;;;;;;;2.50;1.23;;;;;;;;;;5078505;28;20042;-79
2024/03/23 14:48:57;;;;;;;5.05;1.20;;;;;;;;;;5072438;28;20124;-78
2024/03/23 14:51:42;;;;;;;2.70;1.05;;;;;;;;;;5066042;28;20035;-78
2024/03/23 14:54:28;;;;;;;1.90;0.93;;;;;;;;;;5073788;28;20307;-78
2024/03/23 14:57:13;;;;;;;2.92;1.40;;;;;;;;;;5065504;28;20024;-78
2024/03/23 14:59:58;;;;;;;4.00;1.83;;;;;;;;;;5071310;28;20077;-77
2024/03/23 15:02:45;;;;;;;4.38;1.35;;;;;;;;;;5070825;28;20024;-77
2024/03/23 15:05:30;;;;;;;4.82;2.00;;;;;;;;;;5065832;28;20039;-78
2024/03/23 15:08:16;;;;;;;3.63;1.90;;;;;;;;;;5070630;28;20131;-78
2024/03/23 15:11:05;;;;;;;2.55;1.05;;;;;;;;;;5067377;28;20028;-78
2024/03/23 15:13:50;;;;;;;5.85;2.47;;;;;;;;;;5081309;28;20113;-78
2024/03/23 15:16:36;;;;;;;4.78;1.63;;;;;;;;;;5083522;28;20063;-80
2024/03/23 15:19:21;;;;;;;3.45;1.42;;;;;;;;;;5070928;28;20048;-78
2024/03/23 15:22:06;;;;;;;3.78;1.35;;;;;;;;;;5072608;28;20090;-79
2024/03/23 15:24:57;;;;;;;3.28;1.25;;;;;;;;;;5062007;28;20016;-78
2024/03/23 15:27:42;;;;;;;4.00;1.20;;;;;;;;;;5108493;28;20024;-79
2024/03/23 15:30:28;;;;;;;5.18;2.10;;;;;;;;;;5089968;28;20099;-78
2024/03/23 15:33:13;;;;;;;2.55;1.38;;;;;;;;;;5067187;28;20383;-78
2024/03/23 15:36:04;;;;;;;3.75;1.40;;;;;;;;;;5066681;28;20108;-78
2024/03/23 15:38:50;;;;;;;3.63;1.67;;;;;;;;;;5089329;28;20123;-79
2024/03/23 15:41:35;;;;;;;4.68;1.85;;;;;;;;;;5087838;28;20043;-79
2024/03/23 15:44:20;;;;;;;4.32;1.60;;;;;;;;;;5068755;28;20504;-79
2024/03/23 15:47:06;;;;;;;4.70;1.58;;;;;;;;;;5072324;28;20067;-79
2024/03/23 15:49:53;;;;;;;2.53;1.10;;;;;;;;;;5077363;28;20012;-78
2024/03/23 15:52:38;;;;;;;5.55;1.50;;;;;;;;;;5053320;28;20103;-79
2024/03/23 15:55:24;;;;;;;6.22;2.35;;;;;;;;;;5066338;28;20027;-79
2024/03/23 15:58:09;;;;;;;3.42;1.25;;;;;;;;;;5072577;28;20032;-78
2024/03/23 16:00:58;;;;;;;9.30;1.85;;;;;;;;;;5053269;28;20459;-79
2024/03/23 16:03:43;;;;;;;3.85;1.67;;;;;;;;;;5052941;28;20081;-78
2024/03/23 16:06:28;;;;;;;2.20;1.38;;;;;;;;;;5069700;28;20036;-79
2024/03/23 16:09:13;;;;;;;3.22;1.40;;;;;;;;;;5068734;28;20040;-78
2024/03/23 16:11:59;;;;;;;2.38;0.90;;;;;;;;;;5067734;28;20115;-78
2024/03/23 16:14:44;;;;;;;4.90;1.13;;;;;;;;;;5076130;28;20104;-79
2024/03/23 16:17:35;;;;;;;2.20;1.23;;;;;;;;;;5093414;28;20034;-78
2024/03/23 16:20:21;;;;;;;2.38;0.98;;;;;;;;;;5087901;28;20070;-77
2024/03/23 16:23:06;;;;;;;1.80;1.05;;;;;;;;;;5061828;28;20025;-78
2024/03/23 16:25:56;;;;;;;3.00;1.20;;;;;;;;;;5073590;28;20129;-78
2024/03/23 16:28:41;;;;;;;3.53;1.23;;;;;;;;;;5092396;28;20435;-78
2024/03/23 16:31:26;;;;;;;1.95;1.00;;;;;;;;;;5093259;28;20080;-82
2024/03/23 16:34:11;;;;;;;2.13;0.80;;;;;;;;;;5090764;28;20053;-79